No se requiere un especial cuidado respecto a la situación meteorológica.   -   No hay avisos

Informes METAR

 

LEZL - Sevilla, Spain
Distancia de la estación: ENE 8km
Actualización: 25/09/2016 15:30
Despejado
Despejado
 Viento de NE
Viento: NE 4 km/h
Temperatura: 30°C
Rocío: 10°C
Humedad: 29%
Barómetro: 1017 hPa
Resumen: Despejado
Visibilidad: mayor de 10 km
2016/09/25 13:30 LEZL 251330Z 04002KT CAVOK 30/10 Q1017 NOSIG
LEMO - Morón, Spain
Distancia de la estación: SE 43km
Actualización: 25/09/2016 15:00
Despejado
Despejado
 Viento de variable
Viento: variable 4 km/h
Temperatura: 31°C
Rocío: 14°C
Humedad: 35%
Barómetro: 1018 hPa
Resumen: Despejado
Visibilidad: mayor de 10 km
2016/09/25 13:00 LEMO 251300Z VRB02KT CAVOK 31/14 Q1018 NOSIG
LEJR - Jeréz, Spain
Distancia de la estación: S 71km
Actualización: 25/09/2016 16:00
Despejado
Despejado
 Viento de variable
Viento: variable 2 km/h
Temperatura: 32°C
Rocío: 14°C
Humedad: 33%
Barómetro: 1017 hPa
Resumen: Despejado
Visibilidad: mayor de 10 km
2016/09/25 14:00 LEJR 251400Z VRB01KT CAVOK 32/14 Q1017
 
LERT - Rota, Spain
Distancia de la estación: SSO 89km
Actualización: 25/09/2016 15:00
Poco nuboso
Poco nuboso
 Viento de O
Viento: O 17 km/h
Temperatura: 26°C
Rocío: 18°C
Humedad: 61%
Barómetro: 1018 hPa
Nubes: Poco nuboso
Visibilidad: 10 km
Detalles de las nubes: Poco nuboso 1219 m
2016/09/25 13:00 LERT 251300Z 26009KT 230V290 9999 FEW040 26/18 Q1018 NOSIG
LEMG - Málaga, Spain
Distancia de la estación: ESE 157km
Actualización: 25/09/2016 15:30
Poco nuboso
Poco nuboso
 Viento de SE
Viento: SE 15 km/h
Temperatura: 25°C
Rocío: 18°C
Humedad: 65%
Barómetro: 1018 hPa
Nubes: Poco nuboso
Visibilidad: 10 km
Detalles de las nubes: Poco nuboso 914 m
2016/09/25 13:30 LEMG 251330Z 13008KT 080V160 9999 FEW030 25/18 Q1018 NOSIG
LEBA - Córdoba, Spain
Distancia de la estación: ENE 115km
Actualización: 25/09/2016 15:30
Despejado
Despejado
 Viento de O
Viento: O 2 km/h
Temperatura: 31°C
Rocío: 8°C
Humedad: 24%
Barómetro: 1017 hPa
Nubes: Despejado
Visibilidad: 10 km
2016/09/25 13:30 LEBA 251330Z AUTO 26001KT 9999 NCD 31/08 Q1017
 
LEGR - Granada, Spain
Distancia de la estación: E 198km
Actualización: 25/09/2016 15:30
Poco nuboso
Poco nuboso
 Viento de variable
Viento: variable 7 km/h
Temperatura: 29°C
Rocío: 9°C
Humedad: 29%
Barómetro: 1019 hPa
Nubes: Poco nuboso
Visibilidad: 10 km
Detalles de las nubes: Poco nuboso 1372 m
2016/09/25 13:30 LEGR 251330Z VRB04KT 9999 FEW045 29/09 Q1019
LEAM - Almería, Spain
Distancia de la estación: E 326km
Actualización: 25/09/2016 15:30
Poco nuboso
Poco nuboso
 Viento de S
Viento: S 11 km/h
Temperatura: 25°C
Rocío: 21°C
Humedad: 79%
Barómetro: 1018 hPa
Nubes: Poco nuboso
Visibilidad: 10 km
Detalles de las nubes: Poco nuboso 610 m
2016/09/25 13:30 LEAM 251330Z 19006KT 160V230 9999 FEW020 25/21 Q1018
LEMD - Madrid/Barajas, Spain
Distancia de la estación: NNE 402km
Actualización: 25/09/2016 15:30
Poco nuboso
Poco nuboso
 Viento de OSO
Viento: OSO 6 km/h
Temperatura: 27°C
Rocío: 7°C
Humedad: 28%
Barómetro: 1020 hPa
Nubes: Poco nuboso
Visibilidad: 10 km
Detalles de las nubes: Poco nuboso 1829 m
2016/09/25 13:30 LEMD 251330Z 25003KT 9999 FEW060 27/07 Q1020 NOSIG
 
LEVD - Valladolid, Spain
Distancia de la estación: N 492km
Actualización: 25/09/2016 15:30
Parcialmente nuboso
Parcialmente nuboso
 Viento de NNO
Viento: NNO 2 km/h
Temperatura: 20°C
Rocío: 8°C
Humedad: 46%
Barómetro: 1022 hPa
Nubes: Parcialmente nuboso
Visibilidad: 10 km
Detalles de las nubes: Parcialmente nuboso 1402 m
2016/09/25 13:30 LEVD 251330Z 34001KT 9999 SCT046 20/08 Q1022
LEBL - Barcelona, Spain
Distancia de la estación: NE 816km
Actualización: 25/09/2016 15:30
Poco nuboso
Poco nuboso
 Viento de S
Viento: S 13 km/h
Temperatura: 24°C
Rocío: 17°C
Humedad: 65%
Barómetro: 1019 hPa
Nubes: Poco nuboso
Visibilidad: 10 km
Detalles de las nubes: Poco nuboso 914 m
2016/09/25 13:30 LEBL 251330Z 18007KT 130V210 9999 FEW030 24/17 Q1019 NOSIG
LEVC - Valencia, Spain
Distancia de la estación: ENE 535km
Actualización: 25/09/2016 15:30
Poco nuboso
Poco nuboso
 Viento de SE
Viento: SE 19 km/h
Temperatura: 26°C
Rocío: 19°C
Humedad: 65%
Barómetro: 1018 hPa
Nubes: Poco nuboso
Visibilidad: 10 km
Detalles de las nubes: Poco nuboso 914 m
2016/09/25 13:30 LEVC 251330Z 13010KT 100V160 9999 FEW030CB 26/19 Q1018 NOSIG